Time;durP1;ratioP1;P1;durP2;ratioP2;P2;SDS_P1;SDS_P2;PMS_P1;PMS_P2;Temp;Humidity;BMP_temperature;BMP_pressure;BME280_temperature;BME280_humidity;BME280_pressure;Samples;Min_cycle;Max_cycle;Signal;HPM_P1;HPM_P2
2023/07/14 00:02:09;;;;;;;0.40;0.40;;;;;;;19.97;53.23;101192.97;5208228;28;20025;-83
2023/07/14 00:05:00;;;;;;;0.30;0.30;;;;;;;19.96;53.31;101185.94;5203215;28;20098;-83
2023/07/14 00:07:51;;;;;;;0.85;0.80;;;;;;;19.90;53.31;101183.63;5192999;28;20017;-83
2023/07/14 00:10:42;;;;;;;0.20;0.20;;;;;;;19.91;53.33;101185.38;5202615;28;20029;-83
2023/07/14 00:13:34;;;;;;;0.25;0.25;;;;;;;19.89;53.17;101176.59;5204888;28;20542;-84
2023/07/14 00:16:29;;;;;;;0.30;0.30;;;;;;;19.90;53.41;101176.53;5210257;28;20595;-87
2023/07/14 00:19:20;;;;;;;0.30;0.30;;;;;;;19.85;53.74;101188.41;5201779;28;20559;-83
2023/07/14 00:22:14;;;;;;;2.70;1.85;;;;;;;19.85;53.93;101183.91;5200090;28;20025;-84
2023/07/14 00:25:05;;;;;;;0.52;0.52;;;;;;;19.84;53.96;101183.97;5205252;28;20041;-83
2023/07/14 00:27:56;;;;;;;1.85;0.75;;;;;;;19.81;54.16;101183.22;5201166;28;20013;-83
2023/07/14 00:30:48;;;;;;;0.30;0.30;;;;;;;19.81;53.77;101172.56;5210526;28;20040;-83
2023/07/14 00:33:39;;;;;;;3.20;2.13;;;;;;;19.81;53.76;101177.88;5202324;28;20021;-84
2023/07/14 00:36:30;;;;;;;3.30;0.30;;;;;;;19.80;53.94;101181.47;5201110;28;20032;-83
2023/07/14 00:39:20;;;;;;;2.25;0.95;;;;;;;19.74;55.16;101183.69;5217997;28;20040;-84
2023/07/14 00:42:13;;;;;;;14.85;2.83;;;;;;;19.73;55.16;101182.78;5215099;28;20124;-83
2023/07/14 00:45:10;;;;;;;0.50;0.50;;;;;;;19.75;55.41;101180.91;5209591;28;20036;-84
2023/07/14 00:48:04;;;;;;;0.25;0.25;;;;;;;19.72;55.04;101183.75;5190575;28;20025;-84
2023/07/14 00:50:59;;;;;;;0.60;0.60;;;;;;;19.69;56.25;101180.41;5209441;28;20028;-84
2023/07/14 00:53:51;;;;;;;0.30;0.30;;;;;;;19.70;54.60;101180.34;5212400;28;20084;-83
2023/07/14 00:56:47;;;;;;;0.20;0.20;;;;;;;19.69;54.91;101178.63;5194901;28;20024;-84
2023/07/14 00:59:38;;;;;;;0.30;0.30;;;;;;;19.63;54.70;101178.94;5209758;28;20045;-84
2023/07/14 01:02:28;;;;;;;0.85;0.75;;;;;;;19.66;55.22;101176.13;5194239;28;20032;-83
2023/07/14 01:05:19;;;;;;;0.75;0.75;;;;;;;19.73;55.18;101184.63;5209914;28;20086;-82
2023/07/14 01:08:10;;;;;;;0.57;0.57;;;;;;;19.63;54.93;101173.63;5198573;28;20025;-83
2023/07/14 01:11:03;;;;;;;0.57;0.57;;;;;;;19.67;54.80;101175.19;5227007;28;20542;-84
2023/07/14 01:13:55;;;;;;;1.27;0.85;;;;;;;19.62;55.53;101171.94;5196054;28;20025;-83
2023/07/14 01:16:47;;;;;;;0.30;0.30;;;;;;;19.52;57.13;101170.75;5227270;28;20087;-84
2023/07/14 01:20:00;;;;;;;13.00;1.52;;;;;;;19.62;55.86;101172.78;5214164;28;20100;-83
2023/07/14 01:23:29;;;;;;;0.50;0.50;;;;;;;19.61;55.12;101170.22;5227226;28;20029;-83
2023/07/14 01:26:33;;;;;;;0.40;0.40;;;;;;;19.63;55.34;101168.31;5212052;28;20141;-84
2023/07/14 01:29:24;;;;;;;1.00;0.60;;;;;;;19.65;55.04;101166.41;5211649;28;20029;-84
2023/07/14 01:32:18;;;;;;;0.30;0.30;;;;;;;19.61;55.12;101163.06;5226339;28;20036;-83
2023/07/14 01:35:09;;;;;;;2.10;1.15;;;;;;;19.57;55.40;101171.31;5210351;28;20563;-83
2023/07/14 01:38:00;;;;;;;0.20;0.20;;;;;;;19.57;55.64;101174.00;5192058;28;20044;-83
2023/07/14 01:40:53;;;;;;;1.25;0.90;;;;;;;19.60;54.89;101171.16;5210374;28;20033;-83
2023/07/14 01:43:44;;;;;;;0.30;0.30;;;;;;;19.57;55.16;101169.53;5193975;28;20045;-82
2023/07/14 01:46:36;;;;;;;0.20;0.20;;;;;;;19.60;55.06;101169.34;5226897;28;20083;-83
2023/07/14 01:49:38;;;;;;;0.63;0.57;;;;;;;19.57;55.01;101176.66;5209237;28;20533;-84
2023/07/14 01:52:30;;;;;;;0.32;0.32;;;;;;;19.54;55.02;101176.84;5227122;28;20060;-84
2023/07/14 01:55:25;;;;;;;0.35;0.35;;;;;;;19.55;55.02;101170.56;5195046;28;20067;-84
2023/07/14 01:58:21;;;;;;;0.40;0.40;;;;;;;19.50;55.04;101169.03;5227976;28;20068;-83
2023/07/14 02:01:12;;;;;;;0.70;0.70;;;;;;;19.48;55.18;101165.59;5223347;28;20101;-85
2023/07/14 02:04:05;;;;;;;0.93;0.70;;;;;;;19.49;55.00;101167.31;5206758;28;20041;-82
2023/07/14 02:06:58;;;;;;;0.45;0.45;;;;;;;19.50;55.14;101163.72;5227497;28;20088;-82
2023/07/14 02:09:49;;;;;;;0.47;0.47;;;;;;;19.41;55.45;101156.25;5197406;28;20033;-84
2023/07/14 02:12:42;;;;;;;1.55;1.00;;;;;;;19.35;55.71;101159.28;5200280;28;20067;-83
2023/07/14 02:15:33;;;;;;;0.63;0.63;;;;;;;19.38;55.57;101159.06;5196419;28;20203;-83
2023/07/14 02:18:27;;;;;;;0.30;0.30;;;;;;;19.38;55.09;101159.06;5228152;28;20115;-83
2023/07/14 02:21:29;;;;;;;0.28;0.28;;;;;;;19.35;54.89;101161.94;5195834;28;20151;-84
2023/07/14 02:24:26;;;;;;;0.30;0.30;;;;;;;19.34;54.98;101157.56;5195359;28;20037;-83
2023/07/14 02:27:17;;;;;;;0.20;0.20;;;;;;;19.35;55.02;101153.94;5201105;28;20496;-83
2023/07/14 02:30:12;;;;;;;3.47;1.75;;;;;;;19.32;55.05;101154.09;5215544;28;20048;-82
2023/07/14 02:33:23;;;;;;;0.70;0.70;;;;;;;19.31;54.80;101152.41;5195358;28;20025;-82
2023/07/14 02:36:25;;;;;;;0.40;0.40;;;;;;;19.27;55.04;101145.53;5199006;28;20033;-83
2023/07/14 02:39:16;;;;;;;0.75;0.75;;;;;;;19.24;54.97;101153.69;5207388;28;20041;-83
2023/07/14 02:42:07;;;;;;;0.30;0.30;;;;;;;19.19;55.17;101152.16;5199291;28;20112;-83
2023/07/14 02:44:57;;;;;;;0.38;0.38;;;;;;;19.15;55.61;101163.91;5197839;28;20124;-83
2023/07/14 02:47:52;;;;;;;3.92;1.65;;;;;;;19.16;55.22;101149.66;5193274;28;20036;-83
2023/07/14 02:50:43;;;;;;;0.20;0.20;;;;;;;19.17;55.45;101156.72;5213454;28;20025;-83
2023/07/14 02:53:34;;;;;;;0.20;0.20;;;;;;;19.12;55.57;101155.25;5210828;28;20024;-84
2023/07/14 02:56:25;;;;;;;0.20;0.20;;;;;;;19.15;55.59;101158.59;5210315;28;20034;-83
2023/07/14 02:59:16;;;;;;;0.40;0.40;;;;;;;19.16;55.42;101148.81;5196875;28;20029;-84
2023/07/14 03:02:07;;;;;;;0.38;0.38;;;;;;;19.11;55.58;101145.53;5214146;28;20059;-83
2023/07/14 03:04:58;;;;;;;0.30;0.30;;;;;;;19.07;55.63;101144.03;5211410;28;20040;-83
2023/07/14 03:07:48;;;;;;;0.30;0.30;;;;;;;18.99;55.84;101149.75;5216327;28;20017;-84
2023/07/14 03:10:39;;;;;;;1.38;0.98;;;;;;;18.98;55.64;101148.91;5200794;28;20196;-84
2023/07/14 03:13:30;;;;;;;0.60;0.60;;;;;;;18.93;55.69;101142.13;5217484;28;20107;-84
2023/07/14 03:16:21;;;;;;;0.40;0.40;;;;;;;18.88;55.87;101139.69;5206577;28;20506;-84
2023/07/14 03:19:12;;;;;;;0.32;0.32;;;;;;;18.93;55.62;101147.44;5198874;28;20040;-83
2023/07/14 03:22:03;;;;;;;0.55;0.47;;;;;;;18.92;55.76;101140.38;5227301;28;20028;-84
2023/07/14 03:24:53;;;;;;;0.35;0.35;;;;;;;18.81;56.55;101147.13;5214499;28;20110;-84
2023/07/14 03:27:45;;;;;;;0.60;0.60;;;;;;;18.79;56.83;101148.16;5215067;28;20096;-83
2023/07/14 03:30:42;;;;;;;0.52;0.52;;;;;;;18.78;55.99;101149.09;5205647;28;20033;-84
2023/07/14 03:33:33;;;;;;;0.35;0.35;;;;;;;18.80;56.03;101137.44;5209067;28;20033;-83
2023/07/14 03:36:25;;;;;;;1.23;0.68;;;;;;;18.80;56.41;101137.44;5209272;28;20044;-83
2023/07/14 03:39:24;;;;;;;0.30;0.30;;;;;;;18.73;56.04;101138.72;5193374;28;20037;-83
2023/07/14 03:42:15;;;;;;;0.60;0.60;;;;;;;18.68;56.24;101138.13;5198190;28;20040;-83
2023/07/14 03:45:06;;;;;;;0.35;0.35;;;;;;;18.66;56.26;101127.59;5211161;28;20072;-83
2023/07/14 03:47:57;;;;;;;0.30;0.30;;;;;;;18.63;56.27;101127.75;5212382;28;20021;-82
2023/07/14 03:50:48;;;;;;;2.65;1.05;;;;;;;18.63;56.08;101127.75;5213431;28;20029;-83
2023/07/14 03:53:39;;;;;;;0.50;0.50;;;;;;;18.61;56.28;101132.28;5226274;28;20536;-83
2023/07/14 03:56:30;;;;;;;0.65;0.65;;;;;;;18.62;56.36;101134.00;5229279;28;20025;-83
2023/07/14 03:59:21;;;;;;;0.63;0.63;;;;;;;18.57;56.50;101133.41;5215886;28;20049;-82
2023/07/14 04:02:12;;;;;;;0.50;0.50;;;;;;;18.51;57.02;101131.09;5222404;28;20059;-84
2023/07/14 04:05:03;;;;;;;0.13;0.13;;;;;;;18.52;56.73;101128.34;5209124;28;20249;-83
2023/07/14 04:07:54;;;;;;;0.70;0.70;;;;;;;18.47;56.80;101133.03;5213770;28;20488;-84
2023/07/14 04:10:44;;;;;;;0.30;0.30;;;;;;;18.44;57.18;101129.69;5196976;28;20037;-82
2023/07/14 04:13:35;;;;;;;0.28;0.28;;;;;;;18.44;56.76;101129.69;5210486;28;20033;-83
2023/07/14 04:16:26;;;;;;;1.38;1.10;;;;;;;18.46;56.94;101134.00;5207901;28;20120;-83
2023/07/14 04:19:17;;;;;;;0.95;0.63;;;;;;;18.42;56.79;101132.44;5195588;28;20064;-83
2023/07/14 04:22:08;;;;;;;0.30;0.30;;;;;;;18.41;57.34;101133.34;5225760;28;20640;-83
2023/07/14 04:24:59;;;;;;;3.30;1.08;;;;;;;18.38;56.93;101138.84;5194084;28;20156;-83
2023/07/14 04:27:52;;;;;;;1.65;1.02;;;;;;;18.40;57.04;101135.19;5195879;28;20017;-83
2023/07/14 04:30:53;;;;;;;0.55;0.55;;;;;;;18.36;57.23;101130.09;5194162;28;20032;-83
2023/07/14 04:33:48;;;;;;;1.95;1.00;;;;;;;18.38;57.18;101137.03;5226674;28;20487;-83
2023/07/14 04:36:40;;;;;;;0.32;0.32;;;;;;;18.37;57.10;101132.66;5227038;28;20024;-84
2023/07/14 04:39:33;;;;;;;0.57;0.55;;;;;;;18.31;57.22;101129.47;5195987;28;20040;-83
2023/07/14 04:42:24;;;;;;;;;;;;;;;18.30;57.31;101133.09;5209720;28;20619;-83
2023/07/14 04:45:16;;;;;;;6.10;0.95;;;;;;;18.28;57.76;101125.19;5203146;28;19923;-84
2023/07/14 04:48:14;;;;;;;0.52;0.52;;;;;;;18.23;58.14;101128.09;5209198;28;20539;-83
2023/07/14 04:51:06;;;;;;;0.65;0.65;;;;;;;18.28;57.82;101122.53;5224080;28;20041;-83
2023/07/14 04:53:56;;;;;;;0.57;0.57;;;;;;;18.29;57.73;101121.59;5190739;28;20031;-84
2023/07/14 04:56:47;;;;;;;0.47;0.47;;;;;;;18.25;57.32;101126.22;5224250;28;20086;-84
2023/07/14 04:59:38;;;;;;;0.50;0.50;;;;;;;18.28;57.23;101121.69;5193493;28;20067;-84
2023/07/14 05:02:29;;;;;;;2.03;0.73;;;;;;;18.28;58.68;101119.03;5207888;28;20024;-83
2023/07/14 05:05:22;;;;;;;0.63;0.55;;;;;;;18.25;57.63;101126.22;5226193;28;20045;-83
2023/07/14 05:08:13;;;;;;;1.13;0.63;;;;;;;18.28;57.51;101119.03;5211520;28;20013;-84
2023/07/14 05:11:04;;;;;;;0.20;0.20;;;;;;;18.27;58.05;101106.69;5205301;28;20029;-83
2023/07/14 05:13:55;;;;;;;0.50;0.50;;;;;;;18.29;57.88;101116.28;5210506;28;20112;-84
2023/07/14 05:16:46;;;;;;;0.40;0.40;;;;;;;18.32;57.72;101117.91;5194655;28;20357;-84
2023/07/14 05:19:36;;;;;;;1.20;1.13;;;;;;;18.31;57.87;101110.88;5198098;28;20191;-83
2023/07/14 05:22:28;;;;;;;3.50;1.00;;;;;;;18.37;58.01;101107.91;5196943;28;20080;-84
2023/07/14 05:25:20;;;;;;;0.52;0.52;;;;;;;18.32;58.30;101112.59;5219686;28;20146;-84
2023/07/14 05:28:11;;;;;;;0.85;0.73;;;;;;;18.32;58.06;101115.25;5206668;28;20092;-83
2023/07/14 05:31:04;;;;;;;0.85;0.60;;;;;;;18.32;57.96;101109.94;5211287;28;20492;-84
2023/07/14 05:33:55;;;;;;;0.22;0.22;;;;;;;18.32;57.68;101108.16;5210006;28;20017;-84
2023/07/14 05:36:46;;;;;;;15.30;2.45;;;;;;;18.39;57.65;101112.19;5208313;28;20075;-83
2023/07/14 05:39:37;;;;;;;2.22;1.60;;;;;;;18.39;57.65;101112.19;5226441;28;20029;-84
2023/07/14 05:42:28;;;;;;;4.97;1.10;;;;;;;18.35;58.42;101110.63;5195026;28;20031;-84
2023/07/14 05:45:18;;;;;;;0.82;0.32;;;;;;;18.36;58.60;101111.50;5196781;28;20043;-83
2023/07/14 05:48:10;;;;;;;1.42;0.85;;;;;;;18.37;57.96;101107.91;5207443;28;20106;-83
2023/07/14 05:51:00;;;;;;;0.45;0.45;;;;;;;18.40;58.04;101108.59;5202614;28;20032;-83
2023/07/14 05:53:51;;;;;;;0.73;0.73;;;;;;;18.43;57.82;101110.22;5190417;28;20035;-83
2023/07/14 05:56:42;;;;;;;21.73;2.83;;;;;;;18.46;57.76;101117.19;5210369;28;20025;-82
2023/07/14 05:59:33;;;;;;;0.40;0.40;;;;;;;18.47;57.85;101105.63;5196151;28;20262;-83
2023/07/14 06:02:24;;;;;;;3.25;1.83;;;;;;;18.45;58.23;101103.03;5212578;28;20715;-84
2023/07/14 06:05:15;;;;;;;0.40;0.40;;;;;;;18.53;58.09;101108.81;5210914;28;20025;-83
2023/07/14 06:08:06;;;;;;;1.90;0.77;;;;;;;18.56;57.81;101105.13;5199091;28;20009;-82
2023/07/14 06:10:56;;;;;;;0.30;0.30;;;;;;;18.60;58.17;101103.16;5227325;28;20112;-83
2023/07/14 06:13:47;;;;;;;0.55;0.55;;;;;;;18.63;58.03;101103.00;5194612;28;20109;-83
2023/07/14 06:16:38;;;;;;;0.30;0.30;;;;;;;18.69;57.93;101097.31;5227840;28;20029;-83
2023/07/14 06:19:29;;;;;;;0.28;0.28;;;;;;;18.68;58.27;101091.13;5210997;28;20103;-84
2023/07/14 06:22:21;;;;;;;0.40;0.40;;;;;;;18.76;57.81;101096.03;5194371;28;20037;-83
2023/07/14 06:25:12;;;;;;;0.40;0.40;;;;;;;18.77;58.24;101079.16;5205393;28;20228;-83
2023/07/14 06:28:03;;;;;;;0.20;0.20;;;;;;;18.76;60.74;101087.22;5204991;28;20086;-83
2023/07/14 06:30:57;;;;;;;1.98;0.40;;;;;;;18.84;58.52;101085.84;5194958;28;20064;-83
2023/07/14 06:33:48;;;;;;;0.30;0.30;;;;;;;18.89;58.34;101082.91;5213050;28;20115;-83
2023/07/14 06:36:39;;;;;;;2.05;0.82;;;;;;;18.97;58.79;101087.81;5220518;28;20488;-85
2023/07/14 06:39:31;;;;;;;1.08;0.30;;;;;;;18.97;58.24;101079.84;5191065;28;20100;-84
2023/07/14 06:42:21;;;;;;;3.13;0.85;;;;;;;18.96;59.25;101083.47;5207215;28;20039;-85
2023/07/14 06:45:12;;;;;;;0.25;0.25;;;;;;;18.99;58.37;101076.19;5204049;28;20037;-86
2023/07/14 06:48:03;;;;;;;1.98;1.80;;;;;;;19.02;58.88;101078.63;5207924;28;20032;-87
2023/07/14 06:50:54;;;;;;;2.67;0.95;;;;;;;19.13;58.45;101071.84;5208766;28;20033;-85
2023/07/14 06:53:46;;;;;;;0.20;0.20;;;;;;;19.13;58.38;101071.84;5202107;28;20062;-85
2023/07/14 06:56:36;;;;;;;0.38;0.38;;;;;;;19.18;58.20;101061.78;5190516;28;20029;-85
2023/07/14 06:59:27;;;;;;;0.20;0.20;;;;;;;19.23;58.89;101059.75;5188684;28;20134;-86
2023/07/14 07:02:18;;;;;;;1.15;0.68;;;;;;;19.24;58.76;101057.94;5203047;28;20033;-84
2023/07/14 07:05:10;;;;;;;1.40;0.80;;;;;;;19.13;59.86;101064.72;5187723;28;20136;-85
2023/07/14 07:08:01;;;;;;;0.68;0.68;;;;;;;19.22;58.39;101055.38;5191369;28;20100;-86
2023/07/14 07:10:52;;;;;;;0.30;0.30;;;;;;;19.32;58.11;101059.22;5188304;28;20040;-87
2023/07/14 07:13:43;;;;;;;0.90;0.82;;;;;;;19.34;58.30;101054.63;5187832;28;20052;-86
2023/07/14 07:16:33;;;;;;;1.98;1.50;;;;;;;19.35;58.52;101055.50;5188898;28;20051;-86
2023/07/14 07:19:24;;;;;;;0.30;0.30;;;;;;;19.36;57.58;101054.56;5191184;28;20277;-86
2023/07/14 07:22:15;;;;;;;0.40;0.40;;;;;;;19.41;57.21;101060.47;5190200;28;20033;-86
2023/07/14 07:25:09;;;;;;;0.20;0.20;;;;;;;19.38;57.24;101057.97;5194285;28;20056;-85
2023/07/14 07:28:00;;;;;;;0.40;0.40;;;;;;;19.45;57.27;101056.69;5204588;28;20372;-86
2023/07/14 07:30:51;;;;;;;0.20;0.20;;;;;;;19.39;57.28;101054.38;5204961;28;20032;-85
2023/07/14 07:33:42;;;;;;;0.20;0.20;;;;;;;19.44;57.30;101054.97;5215888;28;20040;-85
2023/07/14 07:36:33;;;;;;;0.22;0.22;;;;;;;19.46;57.36;101055.72;5189516;28;20021;-86
2023/07/14 07:39:24;;;;;;;0.30;0.30;;;;;;;19.47;57.13;101054.78;5205726;28;20103;-86
2023/07/14 07:42:16;;;;;;;0.25;0.25;;;;;;;19.48;57.26;101047.66;5199238;28;20527;-86
2023/07/14 07:45:08;;;;;;;1.00;0.57;;;;;;;19.55;57.11;101045.47;5200528;28;20043;-86
2023/07/14 07:47:59;;;;;;;0.30;0.30;;;;;;;19.56;57.59;101040.06;5205352;28;20473;-86
2023/07/14 07:50:49;;;;;;;1.02;0.40;;;;;;;19.59;57.55;101039.88;5202723;28;20083;-85
2023/07/14 07:53:40;;;;;;;0.40;0.40;;;;;;;19.67;57.12;101037.59;5188104;28;20071;-86
2023/07/14 07:56:32;;;;;;;0.50;0.50;;;;;;;19.63;57.38;101036.09;5204999;28;20048;-86
2023/07/14 07:59:22;;;;;;;0.20;0.20;;;;;;;19.73;57.38;101020.41;5189303;28;20029;-85
2023/07/14 08:02:13;;;;;;;0.40;0.40;;;;;;;19.72;57.58;101013.38;5189484;28;20033;-86
2023/07/14 08:05:04;;;;;;;0.30;0.30;;;;;;;19.83;57.23;101020.72;5201782;28;20037;-86
2023/07/14 08:07:55;;;;;;;0.57;0.57;;;;;;;19.82;57.76;101019.84;5191149;28;20087;-88
2023/07/14 08:10:46;;;;;;;0.20;0.20;;;;;;;19.84;57.88;101013.56;5188519;28;20068;-86
2023/07/14 08:13:37;;;;;;;0.30;0.30;;;;;;;19.94;57.42;101004.09;5217804;28;20056;-84
2023/07/14 08:16:29;;;;;;;0.57;0.57;;;;;;;20.01;57.63;101005.44;5189725;28;20021;-83
2023/07/14 08:19:20;;;;;;;0.63;0.63;;;;;;;20.15;57.58;100999.25;5198334;28;20047;-84
2023/07/14 08:22:11;;;;;;;0.35;0.35;;;;;;;20.24;57.09;101003.13;5202235;28;20475;-84
2023/07/14 08:25:03;;;;;;;0.50;0.50;;;;;;;20.31;56.92;101004.44;5189048;28;20064;-84
2023/07/14 08:27:53;;;;;;;1.65;1.05;;;;;;;20.34;56.46;101001.59;5207215;28;20293;-84
2023/07/14 08:30:52;;;;;;;0.20;0.20;;;;;;;20.41;55.63;101007.41;5199819;28;20033;-84
2023/07/14 08:33:44;;;;;;;0.30;0.30;;;;;;;20.50;56.11;101008.59;5202455;28;20029;-84
2023/07/14 08:36:35;;;;;;;0.30;0.30;;;;;;;20.59;55.91;101006.19;5204187;28;20480;-84
2023/07/14 08:39:26;;;;;;;0.38;0.38;;;;;;;20.61;56.51;101008.78;5187576;28;20047;-84
2023/07/14 08:42:42;;;;;;;0.13;0.13;;;;;;;20.67;55.50;101003.03;5193175;28;20037;-84
2023/07/14 08:45:41;;;;;;;0.20;0.20;;;;;;;20.68;55.54;100998.53;5201951;28;20036;-84
2023/07/14 08:48:40;;;;;;;0.80;0.80;;;;;;;20.77;54.25;100994.47;5222810;28;20028;-84
2023/07/14 08:51:40;;;;;;;0.30;0.30;;;;;;;20.77;54.11;100997.13;5215503;28;20021;-83
2023/07/14 08:55:09;;;;;;;0.30;0.30;;;;;;;20.82;54.46;100984.34;5204153;28;20105;-87
2023/07/14 08:58:10;;;;;;;0.88;0.35;;;;;;;20.86;53.46;100985.84;5208335;28;20085;-84
2023/07/14 09:01:25;;;;;;;0.32;0.32;;;;;;;20.86;52.91;100977.84;5215068;28;20138;-85
2023/07/14 09:04:24;;;;;;;3.35;0.77;;;;;;;20.93;52.58;100979.16;5208616;28;20233;-83
2023/07/14 09:07:16;;;;;;;0.20;0.20;;;;;;;20.94;52.50;100980.88;5234173;28;20082;-84
2023/07/14 09:10:12;;;;;;;0.50;0.50;;;;;;;20.95;52.66;100982.56;5196098;28;20055;-83
2023/07/14 09:13:30;;;;;;;0.20;0.20;;;;;;;20.98;52.23;100982.34;5220108;28;20043;-83
2023/07/14 09:16:24;;;;;;;0.52;0.52;;;;;;;21.04;52.52;100979.28;5199877;28;20519;-84
2023/07/14 09:19:20;;;;;;;;;;;;;;;21.23;53.96;100980.69;5202472;28;20405;-84
2023/07/14 09:22:24;;;;;;;0.47;0.47;;;;;;;21.20;54.38;100964.88;5176407;28;20618;-84
2023/07/14 09:25:18;;;;;;;0.40;0.40;;;;;;;21.21;52.85;100963.94;5184089;28;20041;-84
2023/07/14 09:28:19;;;;;;;4.45;1.08;;;;;;;21.32;54.06;100952.56;5178066;28;20030;-84
2023/07/14 09:31:45;;;;;;;1.35;0.50;;;;;;;21.48;54.60;100947.00;5187884;28;20458;-84
2023/07/14 09:34:42;;;;;;;0.50;0.50;;;;;;;21.44;54.04;100949.00;5155254;28;20148;-84
2023/07/14 09:37:40;;;;;;;1.35;1.10;;;;;;;21.53;53.75;100950.19;5179196;28;20029;-84
2023/07/14 09:40:34;;;;;;;0.63;0.63;;;;;;;21.58;54.08;100948.09;5199703;28;20033;-84
2023/07/14 09:43:25;;;;;;;0.40;0.40;;;;;;;21.62;53.74;100938.88;5203512;28;20095;-84
2023/07/14 09:46:19;;;;;;;0.60;0.40;;;;;;;21.68;53.35;100937.59;5171948;28;20033;-84
2023/07/14 09:49:23;;;;;;;0.20;0.20;;;;;;;21.70;51.06;100925.84;5189442;28;20112;-84
2023/07/14 09:52:20;;;;;;;0.75;0.63;;;;;;;21.78;51.60;100919.09;5181619;28;20029;-84
2023/07/14 09:55:13;;;;;;;0.20;0.20;;;;;;;21.82;49.93;100918.78;5170047;28;20034;-84
2023/07/14 09:58:14;;;;;;;0.55;0.55;;;;;;;21.95;49.83;100916.06;5187809;28;20048;-84
2023/07/14 10:01:12;;;;;;;2.45;0.43;;;;;;;22.15;48.71;100913.78;5196039;28;20121;-84
2023/07/14 10:04:12;;;;;;;0.40;0.40;;;;;;;22.17;49.51;100911.88;5171554;28;20057;-84
2023/07/14 10:07:35;;;;;;;0.30;0.30;;;;;;;22.28;48.92;100911.06;5180878;28;20083;-84
2023/07/14 10:10:26;;;;;;;0.30;0.30;;;;;;;22.40;48.88;100906.66;5182900;28;20041;-84
2023/07/14 10:13:22;;;;;;;0.82;0.82;;;;;;;22.48;48.30;100896.25;5186681;28;20030;-85
2023/07/14 10:16:15;;;;;;;0.40;0.40;;;;;;;22.55;47.13;100893.97;5204315;28;20033;-84
2023/07/14 10:19:13;;;;;;;0.30;0.30;;;;;;;22.67;47.53;100892.22;5193216;28;20045;-84
2023/07/14 10:22:17;;;;;;;7.80;1.02;;;;;;;22.71;46.67;100885.63;5192315;28;20623;-84
2023/07/14 10:25:16;;;;;;;0.30;0.30;;;;;;;22.81;46.28;100875.94;5206771;28;20681;-84
2023/07/14 10:28:13;;;;;;;0.30;0.30;;;;;;;22.87;47.70;100877.31;5206671;28;20516;-83
2023/07/14 10:31:35;;;;;;;0.30;0.30;;;;;;;22.98;47.33;100873.81;5196992;28;20035;-84
2023/07/14 10:34:59;;;;;;;0.75;0.73;;;;;;;23.17;46.60;100868.72;5222614;28;20037;-83
2023/07/14 10:38:10;;;;;;;1.58;1.48;;;;;;;23.30;45.42;100865.13;5215841;28;20741;-84
2023/07/14 10:41:07;;;;;;;0.47;0.47;;;;;;;23.34;44.79;100855.88;5211256;28;20504;-84
2023/07/14 10:44:07;;;;;;;1.27;1.20;;;;;;;23.39;46.50;100851.00;5221430;28;20416;-84
2023/07/14 10:47:11;;;;;;;0.20;0.20;;;;;;;23.58;46.02;100845.88;5224124;28;20029;-84
2023/07/14 10:50:16;;;;;;;0.30;0.30;;;;;;;23.58;47.46;100837.84;5210510;28;20584;-84
2023/07/14 10:53:48;;;;;;;0.20;0.20;;;;;;;23.61;43.77;100843.91;5184326;28;20020;-84
2023/07/14 10:56:45;;;;;;;0.47;0.45;;;;;;;23.64;43.73;100843.69;5203751;28;20064;-84
2023/07/14 10:59:56;;;;;;;0.20;0.20;;;;;;;23.66;43.74;100829.19;5189797;28;20101;-84
2023/07/14 11:02:57;;;;;;;0.25;0.25;;;;;;;23.71;45.48;100823.44;5200403;28;20064;-84
2023/07/14 11:05:53;;;;;;;0.28;0.28;;;;;;;23.77;43.25;100820.28;5222412;28;20412;-84
2023/07/14 11:08:50;;;;;;;1.40;1.08;;;;;;;23.81;45.09;100816.38;5191932;28;20468;-85
2023/07/14 11:12:08;;;;;;;0.30;0.30;;;;;;;23.79;42.88;100815.66;5233196;28;20020;-85
2023/07/14 11:15:11;;;;;;;0.20;0.20;;;;;;;23.86;43.53;100806.13;5201339;28;20045;-84
2023/07/14 11:18:29;;;;;;;0.40;0.40;;;;;;;23.98;42.52;100790.88;5209362;28;20047;-85
2023/07/14 11:21:27;;;;;;;0.40;0.40;;;;;;;24.12;44.52;100783.56;5192661;28;20148;-84
2023/07/14 11:24:31;;;;;;;0.40;0.40;;;;;;;24.18;43.94;100783.88;5222704;28;20044;-84
2023/07/14 11:27:25;;;;;;;0.40;0.40;;;;;;;24.25;43.97;100767.28;5211495;28;20496;-85
2023/07/14 11:30:21;;;;;;;0.30;0.30;;;;;;;24.33;44.37;100767.50;5211926;28;20029;-85
2023/07/14 11:33:20;;;;;;;0.28;0.28;;;;;;;24.50;43.04;100761.50;5202516;28;20029;-85
2023/07/14 11:36:15;;;;;;;0.20;0.20;;;;;;;24.61;44.33;100754.38;5193902;28;20041;-84
2023/07/14 11:39:19;;;;;;;0.22;0.22;;;;;;;24.66;43.94;100754.84;5224481;28;20563;-84
2023/07/14 11:42:36;;;;;;;0.20;0.20;;;;;;;24.82;42.38;100749.03;5193772;28;20033;-85
2023/07/14 11:45:29;;;;;;;0.50;0.40;;;;;;;24.97;41.61;100746.84;5191351;28;20037;-86
2023/07/14 11:48:34;;;;;;;0.40;0.40;;;;;;;24.98;41.32;100737.81;5211159;28;20029;-85
2023/07/14 11:51:46;;;;;;;0.40;0.40;;;;;;;25.11;39.57;100737.56;5213385;28;20056;-85
2023/07/14 11:55:20;;;;;;;0.85;0.85;;;;;;;25.22;40.36;100742.81;5240732;28;20036;-85
2023/07/14 11:58:24;;;;;;;;;;;;;;;25.41;39.50;100733.97;5215538;28;20327;-84
2023/07/14 12:01:27;;;;;;;;;;;;;;;25.75;40.26;100730.91;5212521;28;19913;-86
2023/07/14 12:04:34;;;;;;;0.55;0.28;;;;;;;25.99;38.16;100726.94;5237748;28;19920;-86
2023/07/14 12:07:25;;;;;;;0.63;0.60;;;;;;;25.75;37.07;100727.41;5224585;28;20195;-85
2023/07/14 12:10:16;;;;;;;0.22;0.22;;;;;;;26.18;37.03;100726.16;5214244;28;20167;-85
2023/07/14 12:13:19;;;;;;;0.20;0.20;;;;;;;25.97;36.74;100728.09;5196503;28;20021;-84
2023/07/14 12:16:18;;;;;;;;;;;;;;;25.98;35.87;100722.59;5206572;28;20075;-84
2023/07/14 12:19:49;;;;;;;0.28;0.28;;;;;;;25.92;37.05;100709.69;5210467;28;19925;-85
2023/07/14 12:22:41;;;;;;;2.28;0.85;;;;;;;26.00;34.96;100700.94;5195239;28;20029;-85
2023/07/14 12:25:39;;;;;;;1.13;0.50;;;;;;;26.20;35.47;100696.41;5190861;28;20041;-85
2023/07/14 12:28:36;;;;;;;1.00;0.60;;;;;;;26.16;35.50;100686.94;5202077;28;20047;-85
2023/07/14 12:31:34;;;;;;;0.30;0.30;;;;;;;26.20;37.21;100682.97;5201425;28;20037;-84
2023/07/14 12:34:31;;;;;;;4.68;0.60;;;;;;;26.28;34.63;100679.56;5204576;28;20047;-84
2023/07/14 12:37:22;;;;;;;0.20;0.20;;;;;;;26.35;33.73;100678.81;5188000;28;20146;-84
2023/07/14 12:40:23;;;;;;;0.20;0.20;;;;;;;26.47;34.18;100673.28;5190739;28;20416;-84
2023/07/14 12:43:36;;;;;;;0.20;0.20;;;;;;;26.51;34.12;100669.28;5191508;28;20025;-84
2023/07/14 12:46:30;;;;;;;0.32;0.32;;;;;;;26.57;34.53;100659.78;5192917;28;20041;-84
2023/07/14 12:49:33;;;;;;;0.20;0.20;;;;;;;26.64;35.03;100653.69;5213019;28;20037;-85
2023/07/14 12:52:29;;;;;;;0.82;0.50;;;;;;;26.81;33.63;100649.38;5191073;28;20025;-85
2023/07/14 12:55:24;;;;;;;0.43;0.43;;;;;;;26.79;34.94;100642.44;5205932;28;20037;-85
2023/07/14 12:58:23;;;;;;;0.30;0.30;;;;;;;26.81;33.62;100630.53;5192207;28;20878;-85
2023/07/14 13:01:17;;;;;;;0.57;0.57;;;;;;;26.93;34.88;100633.03;5189291;28;20045;-85
2023/07/14 13:04:10;;;;;;;0.55;0.55;;;;;;;27.02;34.00;100616.81;5195542;28;20060;-85
2023/07/14 13:07:04;;;;;;;2.42;0.82;;;;;;;27.10;35.97;100609.81;5202832;28;20075;-84
2023/07/14 13:10:10;;;;;;;3.95;0.85;;;;;;;27.18;36.01;100604.50;5205726;28;20572;-85
2023/07/14 13:13:05;;;;;;;0.20;0.20;;;;;;;27.56;34.13;100599.81;5207678;28;20071;-85
2023/07/14 13:16:02;;;;;;;1.60;0.85;;;;;;;27.52;35.32;100606.53;5207085;28;20043;-85
2023/07/14 13:18:56;;;;;;;0.20;0.20;;;;;;;27.64;35.20;100594.50;5207388;28;20393;-86
2023/07/14 13:21:48;;;;;;;0.57;0.57;;;;;;;27.87;34.85;100599.41;5212616;28;20028;-84
2023/07/14 13:24:39;;;;;;;0.30;0.30;;;;;;;27.95;33.95;100591.34;5192208;28;20028;-86
2023/07/14 13:27:33;;;;;;;0.47;0.47;;;;;;;28.10;32.81;100590.78;5207319;28;20021;-85
2023/07/14 13:30:31;;;;;;;0.20;0.20;;;;;;;28.24;34.19;100584.81;5208805;28;20037;-86
2023/07/14 13:33:25;;;;;;;0.75;0.75;;;;;;;28.39;33.98;100576.09;5189824;28;20040;-83
2023/07/14 13:36:25;;;;;;;2.08;1.45;;;;;;;28.35;33.20;100572.03;5211520;28;20029;-85
2023/07/14 13:39:36;;;;;;;0.30;0.30;;;;;;;28.25;34.23;100564.91;5200294;28;20029;-85